createdAt,value
2024-04-18T00:24:38.762Z,99.90
2024-04-18T00:30:08.438Z,99.90
2024-04-18T00:32:58.171Z,99.90
2024-04-18T00:35:42.058Z,99.90
2024-04-18T00:38:24.157Z,99.90
2024-04-18T00:44:04.469Z,99.90
2024-04-18T00:46:36.828Z,99.90
2024-04-18T00:49:27.863Z,99.90
2024-04-18T00:52:02.657Z,99.90
2024-04-18T00:54:42.893Z,99.90
2024-04-18T00:57:10.722Z,99.90
2024-04-18T00:59:54.731Z,99.90
2024-04-18T01:02:30.727Z,99.90
2024-04-18T01:05:23.249Z,99.90
2024-04-18T01:08:02.586Z,99.90
2024-04-18T01:10:57.421Z,99.90
2024-04-18T01:13:26.404Z,99.90
2024-04-18T01:16:17.838Z,99.90
2024-04-18T01:18:53.752Z,99.90
2024-04-18T01:21:25.291Z,99.90
2024-04-18T01:23:54.409Z,99.90
2024-04-18T01:26:36.857Z,99.90
2024-04-18T01:29:05.557Z,1.00
2024-04-18T01:31:40.365Z,1.00
2024-04-18T01:34:18.868Z,99.90
2024-04-18T01:39:38.131Z,99.90
2024-04-18T01:42:14.715Z,99.90
2024-04-18T01:44:56.591Z,99.90
2024-04-18T01:47:47.551Z,99.90
2024-04-18T01:53:05.779Z,1.00
2024-04-18T02:01:31.959Z,1.00
2024-04-18T02:04:01.549Z,1.00
2024-04-18T02:06:39.337Z,1.00
2024-04-18T02:09:32.569Z,1.00
2024-04-18T02:15:27.016Z,1.00
2024-04-18T02:18:21.062Z,1.00
2024-04-18T02:20:53.647Z,1.00
2024-04-18T02:23:32.731Z,1.00
2024-04-18T02:26:04.269Z,1.00
2024-04-18T02:28:31.997Z,1.00
2024-04-18T02:31:21.644Z,32.80
2024-04-18T02:34:04.280Z,99.90
2024-04-18T02:36:58.713Z,99.90
2024-04-18T02:39:29.868Z,99.90
2024-04-18T02:41:57.809Z,99.90
2024-04-18T02:44:55.688Z,99.90
2024-04-18T02:50:06.153Z,99.90
2024-04-18T02:52:35.534Z,99.90
2024-04-18T02:55:29.482Z,99.90
2024-04-18T02:58:00.833Z,99.90
2024-04-18T03:00:32.519Z,1.00
2024-04-18T03:03:18.802Z,1.00
2024-04-18T03:06:10.203Z,1.00
2024-04-18T03:08:40.825Z,1.00
2024-04-18T03:11:22.078Z,1.00
2024-04-18T03:14:13.158Z,1.00
2024-04-18T03:16:42.097Z,1.00
2024-04-18T03:19:21.901Z,1.00
2024-04-18T03:21:57.383Z,1.00
2024-04-18T03:24:27.134Z,1.00
2024-04-18T03:26:55.885Z,1.00
2024-04-18T03:30:14.010Z,1.00
2024-04-18T03:33:02.271Z,1.00
2024-04-18T03:35:34.130Z,1.00
2024-04-18T03:38:23.125Z,1.00
2024-04-18T03:41:05.176Z,1.00
2024-04-18T03:43:39.741Z,1.00
2024-04-18T03:46:19.022Z,1.00
2024-04-18T03:48:59.486Z,1.00
2024-04-18T03:51:36.231Z,1.00
2024-04-18T03:54:24.561Z,1.00
2024-04-18T03:59:57.575Z,1.00
2024-04-18T04:02:26.687Z,1.00
2024-04-18T04:04:55.060Z,1.00
2024-04-18T04:07:29.859Z,1.00
2024-04-18T04:10:06.942Z,1.00
2024-04-18T04:12:40.065Z,1.00
2024-04-18T04:18:06.275Z,1.00
2024-04-18T04:20:49.126Z,1.00
2024-04-18T04:23:18.689Z,1.00
2024-04-18T04:28:41.463Z,99.90
2024-04-18T04:33:50.053Z,1.00
2024-04-18T04:36:25.743Z,1.00
2024-04-18T04:41:42.427Z,1.00
2024-04-18T04:44:13.854Z,1.00
2024-04-18T04:49:48.353Z,1.00
2024-04-18T04:55:21.461Z,1.00
2024-04-18T04:58:15.173Z,1.00
2024-04-18T05:00:43.361Z,1.00
2024-04-18T05:03:15.484Z,1.00
2024-04-18T05:05:58.023Z,1.00
2024-04-18T05:08:37.367Z,99.90
2024-04-18T05:11:07.313Z,99.90
2024-04-18T05:13:51.206Z,99.90
2024-04-18T05:16:41.699Z,99.90
2024-04-18T05:19:16.546Z,1.00
2024-04-18T05:24:41.326Z,1.00
2024-04-18T05:27:13.451Z,1.00
2024-04-18T05:30:03.188Z,1.00
2024-04-18T05:32:38.409Z,1.00
2024-04-18T05:35:17.391Z,1.00
2024-04-18T05:37:47.482Z,1.00
2024-04-18T05:40:32.979Z,1.00
2024-04-18T05:43:08.605Z,1.00
2024-04-18T05:45:54.505Z,1.00
2024-04-18T05:48:25.409Z,1.00
2024-04-18T05:53:41.041Z,99.90
2024-04-18T05:56:36.561Z,99.90
2024-04-18T05:59:14.974Z,1.00
2024-04-18T06:11:23.099Z,1.00
2024-04-18T06:16:53.558Z,1.00
2024-04-18T06:19:40.849Z,1.00
2024-04-18T06:22:30.928Z,1.00
2024-04-18T06:25:18.067Z,1.00
2024-04-18T06:27:45.722Z,99.90
2024-04-18T06:30:13.574Z,99.90
2024-04-18T06:32:42.474Z,99.90
2024-04-18T06:35:09.610Z,99.90
2024-04-18T06:37:37.010Z,99.90
2024-04-18T06:40:04.537Z,99.90
2024-04-18T06:42:31.886Z,99.90
2024-04-18T06:44:59.119Z,99.90
2024-04-18T06:47:26.322Z,99.90
2024-04-18T06:50:08.666Z,99.90
2024-04-18T06:52:35.964Z,18.60
2024-04-18T06:55:03.354Z,3.00
2024-04-18T06:57:42.911Z,1.00
2024-04-18T07:00:12.080Z,1.00
2024-04-18T07:02:39.480Z,1.00
2024-04-18T07:05:26.255Z,1.00
2024-04-18T07:08:13.495Z,1.00
2024-04-18T07:10:40.956Z,1.00
2024-04-18T07:13:26.610Z,1.00
2024-04-18T07:16:05.480Z,1.00
2024-04-18T07:18:51.363Z,1.00
2024-04-18T07:21:18.776Z,99.90
2024-04-18T07:23:46.014Z,99.90
2024-04-18T07:26:33.273Z,99.90
2024-04-18T07:29:00.634Z,99.90
2024-04-18T07:31:27.919Z,99.90
2024-04-18T07:34:16.650Z,99.90
2024-04-18T07:36:49.363Z,99.90
2024-04-18T07:39:17.333Z,99.90
2024-04-18T07:41:44.609Z,99.90
2024-04-18T07:44:13.405Z,99.90
2024-04-18T07:46:41.333Z,99.90
2024-04-18T07:49:14.848Z,99.90
2024-04-18T07:51:44.195Z,99.90
2024-04-18T07:54:11.490Z,99.90
2024-04-18T07:56:39.131Z,99.90
2024-04-18T07:59:07.266Z,99.90
2024-04-18T08:01:38.355Z,99.90
2024-04-18T08:04:27.075Z,99.90
2024-04-18T08:06:56.543Z,1.00
2024-04-18T08:09:27.952Z,1.00
2024-04-18T08:12:22.923Z,99.90
2024-04-18T08:14:48.407Z,99.90
2024-04-18T08:17:18.971Z,1.00
2024-04-18T08:19:46.436Z,99.90
2024-04-18T08:22:13.687Z,98.40
2024-04-18T08:24:41.155Z,99.90
2024-04-18T08:27:08.811Z,99.90
2024-04-18T08:29:36.284Z,99.90
2024-04-18T08:32:03.808Z,99.90
2024-04-18T08:34:32.851Z,99.90
2024-04-18T08:37:01.634Z,99.90
2024-04-18T08:39:29.055Z,99.90
2024-04-18T08:42:00.209Z,99.90
2024-04-18T08:44:27.543Z,99.90
2024-04-18T08:46:55.644Z,99.90
2024-04-18T08:49:26.593Z,99.90
2024-04-18T08:51:55.572Z,99.90
2024-04-18T08:54:23.360Z,99.90
2024-04-18T08:56:52.849Z,99.90
2024-04-18T08:59:23.533Z,99.90
2024-04-18T09:01:51.430Z,99.90
2024-04-18T09:04:18.723Z,99.90
2024-04-18T09:06:46.011Z,99.90
2024-04-18T09:09:20.186Z,99.90
2024-04-18T09:11:48.467Z,99.90
2024-04-18T09:14:16.039Z,99.90
2024-04-18T09:16:44.961Z,99.90
2024-04-18T09:19:13.745Z,99.90
2024-04-18T09:21:42.088Z,99.90
2024-04-18T09:24:09.784Z,99.90
2024-04-18T09:26:37.502Z,99.90
2024-04-18T09:29:07.635Z,99.90
2024-04-18T09:31:42.380Z,99.90
2024-04-18T09:34:17.393Z,99.90
2024-04-18T09:36:46.390Z,99.90
2024-04-18T09:39:29.896Z,99.90
2024-04-18T09:42:23.172Z,99.90
2024-04-18T09:44:55.816Z,99.90
2024-04-18T09:47:28.043Z,99.90
2024-04-18T09:49:56.475Z,99.90
2024-04-18T09:52:26.260Z,99.90
2024-04-18T09:54:55.848Z,99.90
2024-04-18T09:57:24.429Z,99.90
2024-04-18T09:59:52.910Z,99.90
2024-04-18T10:02:22.542Z,99.90
2024-04-18T10:04:51.441Z,99.90
2024-04-18T10:07:20.207Z,99.90
2024-04-18T10:09:48.902Z,99.90
2024-04-18T10:12:16.427Z,99.90
2024-04-18T10:14:44.031Z,99.90
2024-04-18T10:17:30.410Z,99.90
2024-04-18T10:20:07.550Z,99.90
2024-04-18T10:22:46.782Z,99.90
2024-04-18T10:25:23.847Z,99.90
2024-04-18T10:27:51.585Z,99.90
2024-04-18T10:30:19.478Z,99.90
2024-04-18T10:32:49.865Z,99.90
2024-04-18T10:35:18.747Z,99.90
2024-04-18T10:38:07.248Z,99.90
2024-04-18T10:40:35.523Z,99.90
2024-04-18T10:43:15.795Z,99.90
2024-04-18T10:45:45.872Z,99.90
2024-04-18T10:48:14.488Z,99.90
2024-04-18T10:50:44.774Z,99.90
2024-04-18T10:53:12.707Z,99.90
2024-04-18T10:55:40.839Z,99.90
2024-04-18T10:58:10.633Z,99.90
2024-04-18T11:00:42.225Z,99.90
2024-04-18T11:03:10.216Z,99.90
2024-04-18T11:05:41.985Z,99.90
2024-04-18T11:08:21.809Z,99.90
2024-04-18T11:10:50.997Z,99.90
2024-04-18T11:13:20.285Z,99.90
2024-04-18T11:15:53.924Z,99.90
2024-04-18T11:18:23.558Z,99.90
2024-04-18T11:20:53.096Z,99.90
2024-04-18T11:23:32.651Z,99.90
2024-04-18T11:26:07.476Z,99.90
2024-04-18T11:28:38.237Z,99.90
2024-04-18T11:31:06.504Z,99.90
2024-04-18T11:33:36.574Z,99.90
2024-04-18T11:36:05.037Z,99.90
2024-04-18T11:38:35.675Z,99.90
2024-04-18T11:41:04.738Z,99.90
2024-04-18T11:43:32.790Z,99.90
2024-04-18T11:46:00.637Z,99.90
2024-04-18T11:48:28.742Z,99.90
2024-04-18T11:50:56.693Z,99.90
2024-04-18T11:53:24.677Z,99.90
2024-04-18T11:55:54.792Z,99.90
2024-04-18T11:58:29.602Z,99.90
2024-04-18T12:00:57.939Z,99.90
2024-04-18T12:03:42.107Z,99.90
2024-04-18T12:06:29.323Z,99.90
2024-04-18T12:08:57.426Z,99.90
2024-04-18T12:11:32.123Z,99.90
2024-04-18T12:14:13.045Z,99.90
2024-04-18T12:16:57.012Z,99.90
2024-04-18T12:19:44.873Z,99.90
2024-04-18T12:22:31.939Z,99.90
2024-04-18T12:25:17.019Z,99.90
2024-04-18T12:27:45.599Z,99.90
2024-04-18T12:30:32.432Z,99.90
2024-04-18T12:33:19.076Z,99.90
2024-04-18T12:35:49.560Z,99.90
2024-04-18T12:38:17.635Z,99.90
2024-04-18T12:40:46.306Z,99.90
2024-04-18T12:43:16.672Z,99.90
2024-04-18T12:46:10.887Z,99.90
2024-04-18T12:48:52.334Z,99.90
2024-04-18T12:51:23.486Z,99.90
2024-04-18T12:53:57.306Z,99.90
2024-04-18T12:56:51.480Z,99.90
2024-04-18T12:59:22.203Z,99.90
2024-04-18T13:01:49.969Z,99.90
2024-04-18T13:04:20.729Z,99.90
2024-04-18T13:06:51.943Z,99.90
2024-04-18T13:09:35.097Z,99.90
2024-04-18T13:12:04.544Z,99.90
2024-04-18T13:14:51.197Z,99.90
2024-04-18T13:17:19.112Z,99.90
2024-04-18T13:19:48.326Z,99.90
2024-04-18T13:22:16.522Z,99.90
2024-04-18T13:24:44.829Z,99.90
2024-04-18T13:27:26.845Z,99.90
2024-04-18T13:29:56.481Z,99.90
2024-04-18T13:32:35.103Z,99.90
2024-04-18T13:35:02.857Z,99.90
2024-04-18T13:37:30.477Z,99.90
2024-04-18T13:40:17.519Z,99.90
2024-04-18T13:43:03.185Z,99.90
2024-04-18T13:45:34.788Z,99.90
2024-04-18T13:48:03.377Z,99.90
2024-04-18T13:50:45.543Z,99.90
2024-04-18T13:53:16.518Z,99.90
2024-04-18T13:55:52.093Z,99.90
2024-04-18T13:58:21.247Z,99.90
2024-04-18T14:01:00.734Z,99.90
2024-04-18T14:03:29.172Z,99.90
2024-04-18T14:06:10.082Z,99.90
2024-04-18T14:08:39.215Z,99.90
2024-04-18T14:11:26.744Z,99.90
2024-04-18T14:14:11.243Z,99.90
2024-04-18T14:17:18.954Z,99.90
2024-04-18T14:20:05.758Z,99.90
2024-04-18T14:22:45.367Z,99.90
2024-04-18T14:25:13.209Z,99.90
2024-04-18T14:27:41.223Z,99.90
2024-04-18T14:30:28.866Z,99.90
2024-04-18T14:33:11.149Z,99.90
2024-04-18T14:35:39.027Z,99.90
2024-04-18T14:38:06.828Z,99.90
2024-04-18T14:40:36.974Z,99.90
2024-04-18T14:43:04.638Z,99.90
2024-04-18T14:45:34.734Z,99.90
2024-04-18T14:48:03.346Z,99.90
2024-04-18T14:50:50.419Z,99.90
2024-04-18T14:53:39.046Z,99.90
2024-04-18T14:56:09.650Z,99.90
2024-04-18T14:58:42.015Z,99.90
2024-04-18T15:01:22.004Z,99.90
2024-04-18T15:03:49.519Z,99.90
2024-04-18T15:06:20.550Z,99.90
2024-04-18T15:09:08.760Z,99.90
2024-04-18T15:11:56.690Z,99.90
2024-04-18T15:14:40.475Z,99.90
2024-04-18T15:17:10.082Z,99.90
2024-04-18T15:19:38.541Z,99.90
2024-04-18T15:22:24.660Z,99.90
2024-04-18T15:25:12.747Z,99.90
2024-04-18T15:27:40.580Z,99.90
2024-04-18T15:30:08.655Z,99.90
2024-04-18T15:32:36.176Z,99.90
2024-04-18T15:35:22.385Z,99.90
2024-04-18T15:38:08.664Z,99.90
2024-04-18T15:40:36.607Z,99.90
2024-04-18T15:43:04.528Z,99.90
2024-04-18T15:45:38.700Z,99.90
2024-04-18T15:48:21.744Z,99.90
2024-04-18T15:50:55.008Z,99.90
2024-04-18T15:53:30.208Z,99.90
2024-04-18T15:56:06.923Z,99.90
2024-04-18T15:58:56.845Z,99.90
2024-04-18T16:01:24.935Z,99.90
2024-04-18T16:04:10.999Z,99.90
2024-04-18T16:06:57.229Z,99.90
2024-04-18T16:09:49.417Z,99.90
2024-04-18T16:12:23.126Z,99.90
2024-04-18T16:15:03.617Z,99.90
2024-04-18T16:17:31.047Z,99.90
2024-04-18T16:20:12.544Z,99.90
2024-04-18T16:22:40.029Z,99.90
2024-04-18T16:25:26.072Z,99.90
2024-04-18T16:27:53.589Z,99.90
2024-04-18T16:30:21.463Z,99.90
2024-04-18T16:32:49.432Z,99.90
2024-04-18T16:35:17.244Z,99.90
2024-04-18T16:38:07.695Z,99.90
2024-04-18T16:40:56.122Z,99.90
2024-04-18T16:43:38.250Z,99.90
2024-04-18T16:46:07.405Z,99.90
2024-04-18T16:48:35.057Z,99.90
2024-04-18T16:51:04.982Z,99.90
2024-04-18T16:53:54.862Z,99.90
2024-04-18T16:56:23.632Z,99.90
2024-04-18T16:58:56.529Z,99.90
2024-04-18T17:01:24.861Z,99.90
2024-04-18T17:03:52.702Z,99.90
2024-04-18T17:09:04.387Z,99.90
2024-04-18T17:11:32.210Z,99.90
2024-04-18T17:14:18.616Z,99.90
2024-04-18T17:16:46.117Z,99.90
2024-04-18T17:19:20.579Z,99.90
2024-04-18T17:21:48.124Z,99.90
2024-04-18T17:24:15.699Z,99.90
2024-04-18T17:27:01.877Z,99.90
2024-04-18T17:29:33.300Z,99.90
2024-04-18T17:32:00.784Z,99.90
2024-04-18T17:34:28.920Z,99.90
2024-04-18T17:37:06.980Z,99.90
2024-04-18T17:39:53.592Z,99.90
2024-04-18T17:42:21.536Z,99.90
2024-04-18T17:44:57.662Z,99.90
2024-04-18T17:47:32.988Z,99.90
2024-04-18T17:50:01.577Z,99.90
2024-04-18T17:52:28.955Z,99.90
2024-04-18T17:54:58.905Z,99.90
2024-04-18T17:57:29.105Z,99.90
2024-04-18T18:00:15.304Z,99.90
2024-04-18T18:02:48.692Z,99.90
2024-04-18T18:05:35.386Z,99.90
2024-04-18T18:08:21.631Z,99.90
2024-04-18T18:10:52.673Z,99.90
2024-04-18T18:13:25.352Z,99.90
2024-04-18T18:16:02.567Z,99.90
2024-04-18T18:18:37.035Z,99.90
2024-04-18T18:21:06.272Z,99.90
2024-04-18T18:23:34.834Z,99.90
2024-04-18T18:26:06.089Z,99.90
2024-04-18T18:28:34.162Z,99.90
2024-04-18T18:31:02.495Z,99.90
2024-04-18T18:33:46.596Z,99.90
2024-04-18T18:36:24.382Z,99.90
2024-04-18T18:38:55.960Z,99.90
2024-04-18T18:41:25.331Z,99.90
2024-04-18T18:44:07.864Z,99.90
2024-04-18T18:46:41.495Z,99.90
2024-04-18T18:49:21.978Z,99.90
2024-04-18T18:51:53.183Z,99.90
2024-04-18T18:54:21.117Z,99.90
2024-04-18T18:56:58.233Z,99.90
2024-04-18T18:59:42.650Z,99.90
2024-04-18T19:02:17.478Z,99.90
2024-04-18T19:05:30.259Z,99.90
2024-04-18T19:07:59.841Z,99.90
2024-04-18T19:10:34.224Z,99.90
2024-04-18T19:13:22.005Z,99.90
2024-04-18T19:16:02.091Z,99.90
2024-04-18T19:21:33.141Z,99.90
2024-04-18T19:24:29.271Z,99.90
2024-04-18T19:27:25.449Z,99.90
2024-04-18T19:30:01.540Z,99.90
2024-04-18T19:32:30.043Z,99.90
2024-04-18T19:35:04.023Z,99.90
2024-04-18T19:37:48.701Z,99.90
2024-04-18T19:40:21.148Z,99.90
2024-04-18T19:43:12.719Z,99.90
2024-04-18T19:46:08.297Z,99.90
2024-04-18T19:48:53.964Z,99.90
2024-04-18T20:36:43.879Z,99.90
2024-04-18T20:40:36.797Z,99.90
2024-04-18T22:27:49.877Z,99.90
2024-04-18T22:31:25.452Z,99.90
2024-04-18T22:37:31.215Z,99.90
2024-04-18T22:40:10.934Z,1.00
2024-04-18T22:45:46.349Z,99.90
2024-04-18T22:48:17.865Z,99.90
2024-04-18T22:51:00.989Z,99.90
2024-04-18T22:53:31.730Z,1.00
2024-04-18T22:56:08.215Z,1.00
2024-04-18T22:58:51.049Z,1.00
2024-04-18T23:01:43.403Z,16.00
2024-04-18T23:04:24.824Z,99.90
2024-04-18T23:07:16.667Z,99.90
2024-04-18T23:10:24.900Z,99.90
2024-04-18T23:14:01.357Z,1.00
2024-04-18T23:17:22.444Z,1.00
2024-04-18T23:20:31.914Z,53.80
2024-04-18T23:26:34.770Z,1.00
2024-04-18T23:29:29.999Z,1.00
2024-04-18T23:36:46.132Z,99.90
2024-04-18T23:44:35.928Z,99.90
2024-04-18T23:46:47.484Z,1.00
2024-04-18T23:52:25.471Z,1.00
2024-04-18T23:56:32.456Z,43.50
2024-04-18T23:57:51.228Z,99.90
